sensor_id;sensor_type;location;lat;lon;timestamp;pressure;altitude;pressure_sealevel;temperature;humidity
7986;BME280;4038;42.612;23.066;2023-11-19T00:02:08;92952.81;;;14.72;nan
7986;BME280;4038;42.612;23.066;2023-11-19T00:04:37;92942.69;;;17.21;nan
7986;BME280;4038;42.612;23.066;2023-11-19T00:07:04;92945.78;;;14.71;nan
7986;BME280;4038;42.612;23.066;2023-11-19T00:09:31;92947.53;;;15.45;nan
7986;BME280;4038;42.612;23.066;2023-11-19T00:11:57;92948.03;;;16.10;nan
7986;BME280;4038;42.612;23.066;2023-11-19T00:14:23;92964.59;;;14.03;nan
7986;BME280;4038;42.612;23.066;2023-11-19T00:16:49;92956.75;;;15.35;nan
7986;BME280;4038;42.612;23.066;2023-11-19T00:19:16;92951.16;;;15.40;nan
7986;BME280;4038;42.612;23.066;2023-11-19T00:21:42;92944.91;;;15.53;nan
7986;BME280;4038;42.612;23.066;2023-11-19T00:24:07;92958.53;;;15.06;nan
7986;BME280;4038;42.612;23.066;2023-11-19T00:26:36;92944.59;;;16.85;nan
7986;BME280;4038;42.612;23.066;2023-11-19T00:29:01;92959.81;;;14.73;nan
7986;BME280;4038;42.612;23.066;2023-11-19T00:31:27;92958.31;;;17.11;nan
7986;BME280;4038;42.612;23.066;2023-11-19T00:33:53;92962.00;;;14.93;nan
7986;BME280;4038;42.612;23.066;2023-11-19T00:36:19;92955.22;;;14.94;nan
7986;BME280;4038;42.612;23.066;2023-11-19T00:38:44;92966.22;;;16.52;nan
7986;BME280;4038;42.612;23.066;2023-11-19T00:41:09;92959.31;;;16.12;nan
7986;BME280;4038;42.612;23.066;2023-11-19T00:43:35;92960.03;;;15.20;nan
7986;BME280;4038;42.612;23.066;2023-11-19T00:46:01;92960.59;;;16.11;nan
7986;BME280;4038;42.612;23.066;2023-11-19T00:48:27;92974.50;;;15.26;nan
7986;BME280;4038;42.612;23.066;2023-11-19T00:50:53;92966.03;;;16.03;nan
7986;BME280;4038;42.612;23.066;2023-11-19T00:53:18;92972.00;;;16.41;nan
7986;BME280;4038;42.612;23.066;2023-11-19T00:55:44;92983.50;;;16.79;nan
7986;BME280;4038;42.612;23.066;2023-11-19T00:58:09;92981.25;;;16.44;nan
7986;BME280;4038;42.612;23.066;2023-11-19T01:00:35;92978.53;;;16.64;nan
7986;BME280;4038;42.612;23.066;2023-11-19T01:03:02;92974.72;;;16.54;nan
7986;BME280;4038;42.612;23.066;2023-11-19T01:05:27;92995.81;;;14.67;nan
7986;BME280;4038;42.612;23.066;2023-11-19T01:07:53;92983.56;;;15.40;nan
7986;BME280;4038;42.612;23.066;2023-11-19T01:10:19;92982.19;;;15.46;nan
7986;BME280;4038;42.612;23.066;2023-11-19T01:12:45;92981.19;;;15.17;nan
7986;BME280;4038;42.612;23.066;2023-11-19T01:15:11;92988.38;;;15.66;nan
7986;BME280;4038;42.612;23.066;2023-11-19T01:17:37;92987.84;;;15.09;nan
7986;BME280;4038;42.612;23.066;2023-11-19T01:20:03;92983.69;;;15.02;nan
7986;BME280;4038;42.612;23.066;2023-11-19T01:22:31;92984.69;;;14.17;nan
7986;BME280;4038;42.612;23.066;2023-11-19T01:24:57;92990.47;;;14.88;nan
7986;BME280;4038;42.612;23.066;2023-11-19T01:27:24;92991.88;;;15.53;nan
7986;BME280;4038;42.612;23.066;2023-11-19T01:29:49;92995.13;;;15.38;nan
7986;BME280;4038;42.612;23.066;2023-11-19T01:32:15;92987.09;;;15.80;nan
7986;BME280;4038;42.612;23.066;2023-11-19T01:34:41;92993.47;;;15.88;nan
7986;BME280;4038;42.612;23.066;2023-11-19T01:37:07;92989.03;;;14.31;nan
7986;BME280;4038;42.612;23.066;2023-11-19T01:39:37;92985.72;;;14.70;nan
7986;BME280;4038;42.612;23.066;2023-11-19T01:42:03;92981.78;;;15.69;nan
7986;BME280;4038;42.612;23.066;2023-11-19T01:44:29;92989.53;;;15.57;nan
7986;BME280;4038;42.612;23.066;2023-11-19T01:46:54;92989.44;;;15.04;nan
7986;BME280;4038;42.612;23.066;2023-11-19T01:49:20;92993.41;;;15.35;nan
7986;BME280;4038;42.612;23.066;2023-11-19T01:51:47;93004.78;;;14.87;nan
7986;BME280;4038;42.612;23.066;2023-11-19T01:54:13;93007.53;;;14.55;nan
7986;BME280;4038;42.612;23.066;2023-11-19T01:56:40;93005.81;;;14.52;nan
7986;BME280;4038;42.612;23.066;2023-11-19T01:59:07;93002.69;;;15.38;nan
7986;BME280;4038;42.612;23.066;2023-11-19T02:01:35;92981.63;;;14.01;nan
7986;BME280;4038;42.612;23.066;2023-11-19T02:04:05;92985.59;;;14.43;nan
7986;BME280;4038;42.612;23.066;2023-11-19T02:06:33;92989.34;;;15.81;nan
7986;BME280;4038;42.612;23.066;2023-11-19T02:08:59;92998.91;;;15.09;nan
7986;BME280;4038;42.612;23.066;2023-11-19T02:11:26;92997.59;;;14.27;nan
7986;BME280;4038;42.612;23.066;2023-11-19T02:13:55;93002.94;;;15.66;nan
7986;BME280;4038;42.612;23.066;2023-11-19T02:16:23;93002.94;;;15.79;nan
7986;BME280;4038;42.612;23.066;2023-11-19T02:18:49;92999.84;;;15.96;nan
7986;BME280;4038;42.612;23.066;2023-11-19T02:21:17;93003.28;;;16.49;nan
7986;BME280;4038;42.612;23.066;2023-11-19T02:23:43;93009.97;;;15.22;nan
7986;BME280;4038;42.612;23.066;2023-11-19T02:26:33;93013.88;;;16.58;nan
7986;BME280;4038;42.612;23.066;2023-11-19T02:29:02;93006.19;;;16.30;nan
7986;BME280;4038;42.612;23.066;2023-11-19T02:31:28;93002.31;;;15.86;nan
7986;BME280;4038;42.612;23.066;2023-11-19T02:33:53;93003.03;;;15.87;nan
7986;BME280;4038;42.612;23.066;2023-11-19T02:36:20;92996.41;;;16.76;nan
7986;BME280;4038;42.612;23.066;2023-11-19T02:38:46;92991.31;;;16.07;nan
7986;BME280;4038;42.612;23.066;2023-11-19T02:41:12;92990.13;;;15.50;nan
7986;BME280;4038;42.612;23.066;2023-11-19T02:43:37;92996.94;;;16.96;nan
7986;BME280;4038;42.612;23.066;2023-11-19T02:46:04;93000.91;;;16.19;nan
7986;BME280;4038;42.612;23.066;2023-11-19T02:48:35;93012.81;;;16.01;nan
7986;BME280;4038;42.612;23.066;2023-11-19T02:51:02;93019.53;;;16.19;nan
7986;BME280;4038;42.612;23.066;2023-11-19T02:53:29;93010.63;;;15.28;nan
7986;BME280;4038;42.612;23.066;2023-11-19T02:55:54;93009.66;;;15.84;nan
7986;BME280;4038;42.612;23.066;2023-11-19T02:58:31;93006.47;;;14.76;nan
7986;BME280;4038;42.612;23.066;2023-11-19T03:00:56;93013.72;;;15.24;nan
7986;BME280;4038;42.612;23.066;2023-11-19T03:03:27;93003.06;;;16.47;nan
7986;BME280;4038;42.612;23.066;2023-11-19T03:06:06;93007.78;;;16.73;nan
7986;BME280;4038;42.612;23.066;2023-11-19T03:08:32;92999.03;;;16.48;nan
7986;BME280;4038;42.612;23.066;2023-11-19T03:10:58;93002.97;;;16.39;nan
7986;BME280;4038;42.612;23.066;2023-11-19T03:13:26;93006.75;;;17.87;nan
7986;BME280;4038;42.612;23.066;2023-11-19T03:15:52;93012.78;;;16.40;nan
7986;BME280;4038;42.612;23.066;2023-11-19T03:18:19;93011.13;;;15.98;nan
7986;BME280;4038;42.612;23.066;2023-11-19T03:20:46;93017.56;;;18.34;nan
7986;BME280;4038;42.612;23.066;2023-11-19T03:23:11;93011.09;;;16.24;nan
7986;BME280;4038;42.612;23.066;2023-11-19T03:25:37;93016.28;;;15.36;nan
7986;BME280;4038;42.612;23.066;2023-11-19T03:28:03;93009.72;;;16.18;nan
7986;BME280;4038;42.612;23.066;2023-11-19T03:30:30;93001.06;;;15.29;nan
7986;BME280;4038;42.612;23.066;2023-11-19T03:32:56;93011.00;;;15.64;nan
7986;BME280;4038;42.612;23.066;2023-11-19T03:35:22;93025.78;;;14.58;nan
7986;BME280;4038;42.612;23.066;2023-11-19T03:37:48;93032.63;;;15.92;nan
7986;BME280;4038;42.612;23.066;2023-11-19T03:40:13;93024.06;;;14.17;nan
7986;BME280;4038;42.612;23.066;2023-11-19T03:42:40;93036.34;;;17.23;nan
7986;BME280;4038;42.612;23.066;2023-11-19T03:45:06;93038.34;;;15.54;nan
7986;BME280;4038;42.612;23.066;2023-11-19T03:47:35;93038.97;;;15.15;nan
7986;BME280;4038;42.612;23.066;2023-11-19T03:50:00;93044.31;;;14.20;nan
7986;BME280;4038;42.612;23.066;2023-11-19T03:52:26;93027.97;;;13.60;nan
7986;BME280;4038;42.612;23.066;2023-11-19T03:54:54;93042.28;;;14.01;nan
7986;BME280;4038;42.612;23.066;2023-11-19T03:57:21;93045.03;;;15.59;nan
7986;BME280;4038;42.612;23.066;2023-11-19T03:59:47;93045.81;;;14.77;nan
7986;BME280;4038;42.612;23.066;2023-11-19T04:02:13;93051.91;;;15.07;nan
7986;BME280;4038;42.612;23.066;2023-11-19T04:04:38;93048.53;;;15.14;nan
7986;BME280;4038;42.612;23.066;2023-11-19T04:07:05;93053.16;;;14.56;nan
7986;BME280;4038;42.612;23.066;2023-11-19T04:09:30;93065.91;;;15.73;nan
7986;BME280;4038;42.612;23.066;2023-11-19T04:11:58;93054.38;;;16.48;nan
7986;BME280;4038;42.612;23.066;2023-11-19T04:14:23;93063.97;;;15.55;nan
7986;BME280;4038;42.612;23.066;2023-11-19T04:16:48;93065.63;;;14.81;nan
7986;BME280;4038;42.612;23.066;2023-11-19T04:19:14;93072.91;;;14.97;nan
7986;BME280;4038;42.612;23.066;2023-11-19T04:21:40;93071.44;;;14.40;nan
7986;BME280;4038;42.612;23.066;2023-11-19T04:24:06;93066.19;;;14.36;nan
7986;BME280;4038;42.612;23.066;2023-11-19T04:26:32;93066.13;;;16.88;nan
7986;BME280;4038;42.612;23.066;2023-11-19T04:28:57;93073.78;;;16.09;nan
7986;BME280;4038;42.612;23.066;2023-11-19T04:31:24;93070.00;;;16.72;nan
7986;BME280;4038;42.612;23.066;2023-11-19T04:33:53;93075.53;;;15.53;nan
7986;BME280;4038;42.612;23.066;2023-11-19T04:36:20;93080.03;;;15.38;nan
7986;BME280;4038;42.612;23.066;2023-11-19T04:38:46;93077.66;;;14.22;nan
7986;BME280;4038;42.612;23.066;2023-11-19T04:41:11;93081.44;;;15.89;nan
7986;BME280;4038;42.612;23.066;2023-11-19T04:43:36;93081.19;;;15.29;nan
7986;BME280;4038;42.612;23.066;2023-11-19T04:46:04;93063.34;;;16.41;nan
7986;BME280;4038;42.612;23.066;2023-11-19T04:48:29;93074.94;;;17.00;nan
7986;BME280;4038;42.612;23.066;2023-11-19T04:50:54;93079.53;;;16.63;nan
7986;BME280;4038;42.612;23.066;2023-11-19T04:53:20;93078.00;;;16.75;nan
7986;BME280;4038;42.612;23.066;2023-11-19T04:55:45;93090.91;;;15.49;nan
7986;BME280;4038;42.612;23.066;2023-11-19T04:58:10;93081.94;;;16.67;nan
7986;BME280;4038;42.612;23.066;2023-11-19T05:00:36;93090.94;;;17.48;nan
7986;BME280;4038;42.612;23.066;2023-11-19T05:03:01;93092.13;;;15.53;nan
7986;BME280;4038;42.612;23.066;2023-11-19T05:05:27;93099.41;;;15.51;nan
7986;BME280;4038;42.612;23.066;2023-11-19T05:07:53;93103.78;;;16.05;nan
7986;BME280;4038;42.612;23.066;2023-11-19T05:10:18;93100.66;;;14.05;nan
7986;BME280;4038;42.612;23.066;2023-11-19T05:12:43;93117.47;;;15.39;nan
7986;BME280;4038;42.612;23.066;2023-11-19T05:15:09;93103.28;;;16.19;nan
7986;BME280;4038;42.612;23.066;2023-11-19T05:17:37;93112.69;;;15.71;nan
7986;BME280;4038;42.612;23.066;2023-11-19T05:20:02;93123.72;;;15.71;nan
7986;BME280;4038;42.612;23.066;2023-11-19T05:22:28;93116.09;;;15.77;nan
7986;BME280;4038;42.612;23.066;2023-11-19T05:24:53;93109.63;;;14.92;nan
7986;BME280;4038;42.612;23.066;2023-11-19T05:27:19;93111.38;;;14.76;nan
7986;BME280;4038;42.612;23.066;2023-11-19T05:29:45;93109.25;;;15.01;nan
7986;BME280;4038;42.612;23.066;2023-11-19T05:32:13;93110.56;;;15.13;nan
7986;BME280;4038;42.612;23.066;2023-11-19T05:34:38;93101.75;;;15.15;nan
7986;BME280;4038;42.612;23.066;2023-11-19T05:37:04;93104.72;;;14.48;nan
7986;BME280;4038;42.612;23.066;2023-11-19T05:39:30;93124.03;;;15.04;nan
7986;BME280;4038;42.612;23.066;2023-11-19T05:41:56;93108.66;;;14.52;nan
7986;BME280;4038;42.612;23.066;2023-11-19T05:44:21;93117.09;;;13.38;nan
7986;BME280;4038;42.612;23.066;2023-11-19T05:46:46;93116.72;;;14.69;nan
7986;BME280;4038;42.612;23.066;2023-11-19T05:49:30;93119.34;;;14.37;nan
7986;BME280;4038;42.612;23.066;2023-11-19T05:51:55;93113.59;;;13.38;nan
7986;BME280;4038;42.612;23.066;2023-11-19T05:54:21;93112.75;;;14.45;nan
7986;BME280;4038;42.612;23.066;2023-11-19T05:56:50;93130.41;;;17.07;nan
7986;BME280;4038;42.612;23.066;2023-11-19T05:59:15;93120.19;;;16.02;nan
7986;BME280;4038;42.612;23.066;2023-11-19T06:01:43;93130.00;;;14.89;nan
7986;BME280;4038;42.612;23.066;2023-11-19T06:04:09;93146.38;;;14.44;nan
7986;BME280;4038;42.612;23.066;2023-11-19T06:06:35;93153.63;;;15.73;nan
7986;BME280;4038;42.612;23.066;2023-11-19T06:09:01;93152.97;;;14.35;nan
7986;BME280;4038;42.612;23.066;2023-11-19T06:11:27;93156.34;;;14.04;nan
7986;BME280;4038;42.612;23.066;2023-11-19T06:13:53;93140.34;;;12.66;nan
7986;BME280;4038;42.612;23.066;2023-11-19T06:16:18;93121.69;;;12.89;nan
7986;BME280;4038;42.612;23.066;2023-11-19T06:18:44;93122.00;;;12.80;nan
7986;BME280;4038;42.612;23.066;2023-11-19T06:21:10;93131.28;;;12.71;nan
7986;BME280;4038;42.612;23.066;2023-11-19T06:23:35;93117.78;;;12.73;nan
7986;BME280;4038;42.612;23.066;2023-11-19T06:26:01;93127.75;;;13.23;nan
7986;BME280;4038;42.612;23.066;2023-11-19T06:28:26;93138.41;;;14.16;nan
7986;BME280;4038;42.612;23.066;2023-11-19T06:30:52;93139.97;;;12.86;nan
7986;BME280;4038;42.612;23.066;2023-11-19T06:33:18;93150.78;;;13.20;nan
7986;BME280;4038;42.612;23.066;2023-11-19T06:35:43;93137.91;;;12.93;nan
7986;BME280;4038;42.612;23.066;2023-11-19T06:38:09;93162.66;;;14.48;nan
7986;BME280;4038;42.612;23.066;2023-11-19T06:40:34;93159.06;;;13.50;nan
7986;BME280;4038;42.612;23.066;2023-11-19T06:43:00;93148.56;;;13.78;nan
7986;BME280;4038;42.612;23.066;2023-11-19T06:45:26;93139.41;;;12.94;nan
7986;BME280;4038;42.612;23.066;2023-11-19T06:47:51;93149.22;;;13.90;nan
7986;BME280;4038;42.612;23.066;2023-11-19T06:50:17;93141.09;;;13.08;nan
7986;BME280;4038;42.612;23.066;2023-11-19T06:52:44;93130.25;;;13.81;nan
7986;BME280;4038;42.612;23.066;2023-11-19T06:55:10;93143.00;;;14.08;nan
7986;BME280;4038;42.612;23.066;2023-11-19T06:57:35;93144.22;;;13.58;nan
7986;BME280;4038;42.612;23.066;2023-11-19T07:00:01;93144.63;;;13.03;nan
7986;BME280;4038;42.612;23.066;2023-11-19T07:02:26;93138.50;;;13.21;nan
7986;BME280;4038;42.612;23.066;2023-11-19T07:04:52;93140.09;;;13.05;nan
7986;BME280;4038;42.612;23.066;2023-11-19T07:07:17;93144.25;;;13.23;nan
7986;BME280;4038;42.612;23.066;2023-11-19T07:09:42;93154.72;;;13.90;nan
7986;BME280;4038;42.612;23.066;2023-11-19T07:12:08;93156.16;;;13.96;nan
7986;BME280;4038;42.612;23.066;2023-11-19T07:14:34;93148.28;;;13.52;nan
7986;BME280;4038;42.612;23.066;2023-11-19T07:16:59;93152.56;;;13.47;nan
7986;BME280;4038;42.612;23.066;2023-11-19T07:19:25;93143.59;;;13.41;nan
7986;BME280;4038;42.612;23.066;2023-11-19T07:21:51;93146.59;;;13.43;nan
7986;BME280;4038;42.612;23.066;2023-11-19T07:24:19;93150.63;;;14.21;nan
7986;BME280;4038;42.612;23.066;2023-11-19T07:26:46;93157.19;;;13.63;nan
7986;BME280;4038;42.612;23.066;2023-11-19T07:29:15;93170.88;;;14.04;nan
7986;BME280;4038;42.612;23.066;2023-11-19T07:31:42;93175.00;;;14.41;nan
7986;BME280;4038;42.612;23.066;2023-11-19T07:34:09;93181.31;;;13.87;nan
7986;BME280;4038;42.612;23.066;2023-11-19T07:36:35;93181.25;;;14.17;nan
7986;BME280;4038;42.612;23.066;2023-11-19T07:39:01;93183.50;;;13.64;nan
7986;BME280;4038;42.612;23.066;2023-11-19T07:41:26;93178.16;;;13.42;nan
7986;BME280;4038;42.612;23.066;2023-11-19T07:43:52;93186.63;;;13.80;nan
7986;BME280;4038;42.612;23.066;2023-11-19T07:46:18;93187.72;;;13.36;nan
7986;BME280;4038;42.612;23.066;2023-11-19T07:48:46;93171.25;;;14.14;nan
7986;BME280;4038;42.612;23.066;2023-11-19T07:51:14;93169.66;;;14.24;nan
7986;BME280;4038;42.612;23.066;2023-11-19T07:53:40;93183.16;;;14.52;nan
7986;BME280;4038;42.612;23.066;2023-11-19T07:56:07;93189.09;;;14.99;nan
7986;BME280;4038;42.612;23.066;2023-11-19T07:58:33;93173.66;;;14.72;nan
7986;BME280;4038;42.612;23.066;2023-11-19T08:00:58;93185.63;;;13.47;nan
7986;BME280;4038;42.612;23.066;2023-11-19T08:03:24;93184.34;;;14.38;nan
7986;BME280;4038;42.612;23.066;2023-11-19T08:05:49;93188.41;;;16.39;nan
7986;BME280;4038;42.612;23.066;2023-11-19T08:08:16;93182.00;;;15.22;nan
7986;BME280;4038;42.612;23.066;2023-11-19T08:10:42;93195.97;;;14.74;nan
7986;BME280;4038;42.612;23.066;2023-11-19T08:13:08;93190.72;;;14.70;nan
7986;BME280;4038;42.612;23.066;2023-11-19T08:15:34;93192.00;;;14.69;nan
7986;BME280;4038;42.612;23.066;2023-11-19T08:17:59;93193.84;;;14.13;nan
7986;BME280;4038;42.612;23.066;2023-11-19T08:20:25;93207.47;;;13.75;nan
7986;BME280;4038;42.612;23.066;2023-11-19T08:22:50;93210.88;;;14.84;nan
7986;BME280;4038;42.612;23.066;2023-11-19T08:25:15;93203.63;;;16.33;nan
7986;BME280;4038;42.612;23.066;2023-11-19T08:27:41;93200.47;;;16.82;nan
7986;BME280;4038;42.612;23.066;2023-11-19T08:30:08;93206.19;;;15.54;nan
7986;BME280;4038;42.612;23.066;2023-11-19T08:32:37;93207.56;;;15.79;nan
7986;BME280;4038;42.612;23.066;2023-11-19T08:35:02;93202.81;;;14.86;nan
7986;BME280;4038;42.612;23.066;2023-11-19T08:37:28;93201.03;;;15.07;nan
7986;BME280;4038;42.612;23.066;2023-11-19T08:39:53;93209.66;;;13.52;nan
7986;BME280;4038;42.612;23.066;2023-11-19T08:42:19;93219.59;;;15.12;nan
7986;BME280;4038;42.612;23.066;2023-11-19T08:44:51;93226.06;;;16.29;nan
7986;BME280;4038;42.612;23.066;2023-11-19T08:47:19;93238.75;;;15.93;nan
7986;BME280;4038;42.612;23.066;2023-11-19T08:49:51;93224.63;;;15.46;nan
7986;BME280;4038;42.612;23.066;2023-11-19T08:52:20;93224.22;;;14.07;nan
7986;BME280;4038;42.612;23.066;2023-11-19T08:54:45;93225.09;;;14.21;nan
7986;BME280;4038;42.612;23.066;2023-11-19T08:57:11;93236.75;;;14.38;nan
7986;BME280;4038;42.612;23.066;2023-11-19T08:59:36;93225.97;;;14.83;nan
7986;BME280;4038;42.612;23.066;2023-11-19T09:02:07;93212.41;;;15.41;nan
7986;BME280;4038;42.612;23.066;2023-11-19T09:04:35;93229.31;;;15.51;nan
7986;BME280;4038;42.612;23.066;2023-11-19T09:07:01;93219.56;;;13.31;nan
7986;BME280;4038;42.612;23.066;2023-11-19T09:09:26;93229.03;;;12.89;nan
7986;BME280;4038;42.612;23.066;2023-11-19T09:11:52;93218.59;;;15.10;nan
7986;BME280;4038;42.612;23.066;2023-11-19T09:14:17;93221.22;;;15.02;nan
7986;BME280;4038;42.612;23.066;2023-11-19T09:16:43;93222.09;;;15.10;nan
7986;BME280;4038;42.612;23.066;2023-11-19T09:19:08;93213.06;;;14.48;nan
7986;BME280;4038;42.612;23.066;2023-11-19T09:21:34;93214.81;;;13.97;nan
7986;BME280;4038;42.612;23.066;2023-11-19T09:24:02;93215.59;;;15.08;nan
7986;BME280;4038;42.612;23.066;2023-11-19T09:26:28;93230.69;;;14.88;nan
7986;BME280;4038;42.612;23.066;2023-11-19T09:28:53;93225.41;;;14.41;nan
7986;BME280;4038;42.612;23.066;2023-11-19T09:31:19;93223.31;;;15.34;nan
7986;BME280;4038;42.612;23.066;2023-11-19T09:33:44;93221.41;;;17.16;nan
7986;BME280;4038;42.612;23.066;2023-11-19T09:36:13;93200.34;;;16.87;nan
7986;BME280;4038;42.612;23.066;2023-11-19T09:38:43;93197.47;;;16.53;nan
7986;BME280;4038;42.612;23.066;2023-11-19T09:41:10;93181.72;;;16.35;nan
7986;BME280;4038;42.612;23.066;2023-11-19T09:43:39;93176.13;;;17.48;nan
7986;BME280;4038;42.612;23.066;2023-11-19T09:46:09;93172.50;;;18.64;nan
7986;BME280;4038;42.612;23.066;2023-11-19T09:48:39;93159.59;;;17.76;nan
7986;BME280;4038;42.612;23.066;2023-11-19T09:51:11;93157.09;;;18.56;nan
7986;BME280;4038;42.612;23.066;2023-11-19T09:53:37;93156.56;;;16.99;nan
7986;BME280;4038;42.612;23.066;2023-11-19T09:56:06;93157.66;;;18.62;nan
7986;BME280;4038;42.612;23.066;2023-11-19T09:58:33;93163.00;;;18.31;nan
7986;BME280;4038;42.612;23.066;2023-11-19T10:01:02;93158.72;;;16.27;nan
7986;BME280;4038;42.612;23.066;2023-11-19T10:03:35;93145.94;;;17.44;nan
7986;BME280;4038;42.612;23.066;2023-11-19T10:06:03;93156.16;;;16.82;nan
7986;BME280;4038;42.612;23.066;2023-11-19T10:08:29;93150.44;;;17.47;nan
7986;BME280;4038;42.612;23.066;2023-11-19T10:10:55;93162.13;;;17.53;nan
7986;BME280;4038;42.612;23.066;2023-11-19T10:13:26;93162.19;;;19.24;nan
7986;BME280;4038;42.612;23.066;2023-11-19T10:15:52;93160.50;;;18.69;nan
7986;BME280;4038;42.612;23.066;2023-11-19T10:18:18;93155.38;;;18.04;nan
7986;BME280;4038;42.612;23.066;2023-11-19T10:20:43;93155.63;;;17.51;nan
7986;BME280;4038;42.612;23.066;2023-11-19T10:23:10;93153.41;;;18.97;nan
7986;BME280;4038;42.612;23.066;2023-11-19T10:25:36;93150.41;;;18.30;nan
7986;BME280;4038;42.612;23.066;2023-11-19T10:28:02;93145.75;;;18.54;nan
7986;BME280;4038;42.612;23.066;2023-11-19T10:30:29;93138.66;;;18.17;nan
7986;BME280;4038;42.612;23.066;2023-11-19T10:33:05;93139.75;;;21.12;nan
7986;BME280;4038;42.612;23.066;2023-11-19T10:35:51;93144.75;;;21.61;nan
7986;BME280;4038;42.612;23.066;2023-11-19T10:38:22;93140.28;;;20.62;nan
7986;BME280;4038;42.612;23.066;2023-11-19T10:40:48;93131.63;;;20.98;nan
7986;BME280;4038;42.612;23.066;2023-11-19T10:43:16;93119.69;;;19.82;nan
7986;BME280;4038;42.612;23.066;2023-11-19T10:45:42;93141.03;;;19.64;nan
7986;BME280;4038;42.612;23.066;2023-11-19T10:48:08;93133.22;;;21.24;nan
7986;BME280;4038;42.612;23.066;2023-11-19T10:50:38;93146.22;;;21.62;nan
7986;BME280;4038;42.612;23.066;2023-11-19T10:53:05;93141.22;;;22.17;nan
7986;BME280;4038;42.612;23.066;2023-11-19T10:55:37;93136.13;;;23.34;nan
7986;BME280;4038;42.612;23.066;2023-11-19T10:58:09;93137.19;;;20.98;nan
7986;BME280;4038;42.612;23.066;2023-11-19T11:00:44;93126.47;;;23.45;nan
7986;BME280;4038;42.612;23.066;2023-11-19T11:03:19;93122.75;;;23.60;nan
7986;BME280;4038;42.612;23.066;2023-11-19T11:05:49;93107.16;;;22.36;nan
7986;BME280;4038;42.612;23.066;2023-11-19T11:08:18;93096.03;;;23.49;nan
7986;BME280;4038;42.612;23.066;2023-11-19T11:10:55;93097.09;;;23.81;nan
7986;BME280;4038;42.612;23.066;2023-11-19T11:13:23;93103.56;;;19.96;nan
7986;BME280;4038;42.612;23.066;2023-11-19T11:15:50;93092.28;;;20.87;nan
7986;BME280;4038;42.612;23.066;2023-11-19T11:18:16;93095.00;;;20.32;nan
7986;BME280;4038;42.612;23.066;2023-11-19T11:20:46;93091.28;;;22.22;nan
7986;BME280;4038;42.612;23.066;2023-11-19T11:31:43;93081.06;;;23.54;nan
7986;BME280;4038;42.612;23.066;2023-11-19T11:37:25;93077.53;;;25.71;nan
7986;BME280;4038;42.612;23.066;2023-11-19T11:39:51;93078.09;;;24.25;nan
7986;BME280;4038;42.612;23.066;2023-11-19T11:50:22;93063.03;;;21.68;nan
7986;BME280;4038;42.612;23.066;2023-11-19T11:55:35;93058.69;;;24.85;nan
7986;BME280;4038;42.612;23.066;2023-11-19T11:58:07;93064.44;;;25.25;nan
7986;BME280;4038;42.612;23.066;2023-11-19T12:00:37;93052.38;;;25.73;nan
7986;BME280;4038;42.612;23.066;2023-11-19T12:03:06;93062.69;;;23.70;nan
7986;BME280;4038;42.612;23.066;2023-11-19T12:05:33;93049.78;;;23.85;nan
7986;BME280;4038;42.612;23.066;2023-11-19T12:08:03;93047.75;;;23.58;nan
7986;BME280;4038;42.612;23.066;2023-11-19T12:10:54;93047.13;;;24.42;nan
7986;BME280;4038;42.612;23.066;2023-11-19T12:13:19;93052.50;;;25.75;nan
7986;BME280;4038;42.612;23.066;2023-11-19T12:18:28;93044.69;;;23.64;nan
7986;BME280;4038;42.612;23.066;2023-11-19T12:20:55;93042.50;;;23.72;nan
7986;BME280;4038;42.612;23.066;2023-11-19T12:23:21;93037.38;;;21.87;nan
7986;BME280;4038;42.612;23.066;2023-11-19T12:25:49;93032.00;;;23.63;nan
7986;BME280;4038;42.612;23.066;2023-11-19T12:28:15;93039.78;;;25.14;nan
7986;BME280;4038;42.612;23.066;2023-11-19T12:30:49;93027.78;;;23.71;nan
7986;BME280;4038;42.612;23.066;2023-11-19T12:33:15;93024.00;;;23.23;nan
7986;BME280;4038;42.612;23.066;2023-11-19T12:35:43;93019.28;;;21.95;nan
7986;BME280;4038;42.612;23.066;2023-11-19T12:38:21;93026.00;;;21.10;nan
7986;BME280;4038;42.612;23.066;2023-11-19T12:40:47;93023.97;;;21.68;nan
7986;BME280;4038;42.612;23.066;2023-11-19T12:43:27;93018.75;;;22.66;nan
7986;BME280;4038;42.612;23.066;2023-11-19T12:45:56;93019.09;;;21.93;nan
7986;BME280;4038;42.612;23.066;2023-11-19T12:48:21;93012.03;;;21.92;nan
7986;BME280;4038;42.612;23.066;2023-11-19T12:50:57;93014.00;;;23.56;nan
7986;BME280;4038;42.612;23.066;2023-11-19T12:53:25;92999.09;;;22.56;nan
7986;BME280;4038;42.612;23.066;2023-11-19T12:55:52;92997.13;;;22.14;nan
7986;BME280;4038;42.612;23.066;2023-11-19T12:58:36;93008.16;;;22.47;nan
7986;BME280;4038;42.612;23.066;2023-11-19T13:01:07;92988.84;;;21.08;nan
7986;BME280;4038;42.612;23.066;2023-11-19T13:03:38;93004.03;;;21.14;nan
7986;BME280;4038;42.612;23.066;2023-11-19T13:06:08;93012.09;;;22.09;nan
7986;BME280;4038;42.612;23.066;2023-11-19T13:08:54;93011.38;;;24.14;nan
7986;BME280;4038;42.612;23.066;2023-11-19T13:11:34;93005.91;;;22.80;nan
7986;BME280;4038;42.612;23.066;2023-11-19T13:14:04;92999.59;;;22.10;nan
7986;BME280;4038;42.612;23.066;2023-11-19T13:16:31;92995.28;;;21.92;nan
7986;BME280;4038;42.612;23.066;2023-11-19T13:18:57;92985.13;;;22.73;nan
7986;BME280;4038;42.612;23.066;2023-11-19T13:21:24;92989.03;;;20.70;nan
7986;BME280;4038;42.612;23.066;2023-11-19T13:23:50;92990.06;;;20.89;nan
7986;BME280;4038;42.612;23.066;2023-11-19T13:26:16;92993.19;;;20.53;nan
7986;BME280;4038;42.612;23.066;2023-11-19T13:28:41;92988.13;;;23.02;nan
7986;BME280;4038;42.612;23.066;2023-11-19T13:31:07;92990.00;;;23.53;nan
7986;BME280;4038;42.612;23.066;2023-11-19T13:33:33;92988.81;;;22.41;nan
7986;BME280;4038;42.612;23.066;2023-11-19T13:35:58;93000.66;;;21.73;nan
7986;BME280;4038;42.612;23.066;2023-11-19T13:38:25;92995.88;;;21.66;nan
7986;BME280;4038;42.612;23.066;2023-11-19T13:40:50;92999.19;;;23.10;nan
7986;BME280;4038;42.612;23.066;2023-11-19T13:43:18;93010.59;;;23.21;nan
7986;BME280;4038;42.612;23.066;2023-11-19T13:45:44;93019.22;;;21.28;nan
7986;BME280;4038;42.612;23.066;2023-11-19T13:48:09;93021.09;;;22.00;nan
7986;BME280;4038;42.612;23.066;2023-11-19T13:50:35;93020.97;;;22.15;nan
7986;BME280;4038;42.612;23.066;2023-11-19T13:53:00;93012.03;;;25.09;nan
7986;BME280;4038;42.612;23.066;2023-11-19T13:55:26;93017.56;;;23.30;nan
7986;BME280;4038;42.612;23.066;2023-11-19T13:57:51;93018.41;;;23.86;nan